createdAt,value
2023-04-11T00:00:01.422Z,63.48
2023-04-11T00:01:01.918Z,62.74
2023-04-11T00:02:02.412Z,61.58
2023-04-11T00:03:03.050Z,61.69
2023-04-11T00:04:03.165Z,62.40
2023-04-11T00:05:03.361Z,62.20
2023-04-11T00:06:03.290Z,62.61
2023-04-11T00:07:03.776Z,62.40
2023-04-11T00:08:04.281Z,62.20
2023-04-11T00:09:04.771Z,61.15
2023-04-11T00:10:05.266Z,59.82
2023-04-11T00:11:05.772Z,59.31
2023-04-11T00:12:06.255Z,59.80
2023-04-11T00:13:06.737Z,59.08
2023-04-11T00:14:07.192Z,58.47
2023-04-11T00:15:07.659Z,58.54
2023-04-11T00:16:08.197Z,56.76
2023-04-11T00:17:08.696Z,56.96
2023-04-11T00:18:09.177Z,57.26
2023-04-11T00:19:09.684Z,57.87
2023-04-11T00:20:10.148Z,57.47
2023-04-11T00:21:10.652Z,57.06
2023-04-11T00:22:11.144Z,56.96
2023-04-11T00:23:11.631Z,57.57
2023-04-11T00:24:12.121Z,56.55
2023-04-11T00:25:12.647Z,57.34
2023-04-11T00:26:13.122Z,56.93
2023-04-11T00:27:13.633Z,55.91
2023-04-11T00:28:14.117Z,55.55
2023-04-11T00:29:14.250Z,55.86
2023-04-11T00:30:14.733Z,55.86
2023-04-11T00:31:15.251Z,56.27
2023-04-11T00:32:15.729Z,56.57
2023-04-11T00:33:16.197Z,56.47
2023-04-11T00:34:16.682Z,56.77
2023-04-11T00:35:17.174Z,56.37
2023-04-11T00:36:17.770Z,57.18
2023-04-11T00:37:17.752Z,56.98
2023-04-11T00:38:18.279Z,56.68
2023-04-11T00:39:18.785Z,56.68
2023-04-11T00:40:19.280Z,56.07
2023-04-11T00:41:19.743Z,56.88
2023-04-11T00:42:20.227Z,56.14
2023-04-11T00:43:20.698Z,55.73
2023-04-11T00:44:21.190Z,55.12
2023-04-11T00:45:21.680Z,55.63
2023-04-11T00:46:22.192Z,55.12
2023-04-11T00:47:22.769Z,55.53
2023-04-11T00:48:23.347Z,55.63
2023-04-11T00:49:23.832Z,55.43
2023-04-11T00:50:23.899Z,55.12
2023-04-11T00:51:24.381Z,55.94
2023-04-11T00:52:24.858Z,55.43
2023-04-11T00:53:25.337Z,54.61
2023-04-11T00:54:25.843Z,54.28
2023-04-11T00:55:26.357Z,54.18
2023-04-11T00:56:26.848Z,53.88
2023-04-11T00:57:27.344Z,54.18
2023-04-11T00:58:27.830Z,54.28
2023-04-11T00:59:28.305Z,54.90
2023-04-11T01:00:28.798Z,54.31
2023-04-11T01:01:29.330Z,54.39
2023-04-11T01:02:29.976Z,54.49
2023-04-11T01:03:30.373Z,54.39
2023-04-11T01:04:30.430Z,54.59
2023-04-11T01:05:30.930Z,54.69
2023-04-11T01:06:31.398Z,54.79
2023-04-11T01:07:31.887Z,54.92
2023-04-11T01:08:32.366Z,54.92
2023-04-11T01:09:32.845Z,54.08
2023-04-11T01:10:33.312Z,55.10
2023-04-11T01:11:33.838Z,55.83
2023-04-11T01:12:34.327Z,55.83
2023-04-11T01:13:34.834Z,55.20
2023-04-11T01:14:35.334Z,55.00
2023-04-11T01:15:35.823Z,54.90
2023-04-11T01:16:36.350Z,55.30
2023-04-11T01:17:36.930Z,55.10
2023-04-11T01:18:37.448Z,54.69
2023-04-11T01:19:37.922Z,54.69
2023-04-11T01:20:38.464Z,54.59
2023-04-11T01:21:38.990Z,55.10
2023-04-11T01:22:39.480Z,55.91
2023-04-11T01:23:39.960Z,56.52
2023-04-11T01:24:40.448Z,57.54
2023-04-11T01:25:40.941Z,58.38
2023-04-11T01:26:41.415Z,59.01
2023-04-11T01:27:41.899Z,59.53
2023-04-11T01:28:42.397Z,59.53
2023-04-11T01:29:42.877Z,59.83
2023-04-11T01:30:43.389Z,59.32
2023-04-11T01:31:43.852Z,59.01
2023-04-11T01:32:44.360Z,57.90
2023-04-11T01:33:44.880Z,58.17
2023-04-11T01:34:45.352Z,57.77
2023-04-11T01:35:45.830Z,57.06
2023-04-11T01:36:46.314Z,57.54
2023-04-11T01:37:46.941Z,58.48
2023-04-11T01:38:47.424Z,58.10
2023-04-11T01:39:47.898Z,59.53
2023-04-11T01:40:48.379Z,60.92
2023-04-11T01:41:48.847Z,60.85
2023-04-11T01:42:49.360Z,64.64
2023-04-11T01:43:49.859Z,63.53
2023-04-11T01:44:50.367Z,63.76
2023-04-11T01:45:50.866Z,63.76
2023-04-11T01:46:51.333Z,64.37
2023-04-11T01:47:51.870Z,65.80
2023-04-11T01:48:52.423Z,65.19
2023-04-11T01:49:52.935Z,63.86
2023-04-11T01:50:53.429Z,63.45
2023-04-11T01:51:53.915Z,64.06
2023-04-11T01:52:54.400Z,64.37
2023-04-11T01:53:54.943Z,63.56
2023-04-11T01:54:55.486Z,62.81
2023-04-11T01:55:55.993Z,62.10
2023-04-11T01:56:56.480Z,62.40
2023-04-11T01:57:56.992Z,63.83
2023-04-11T01:58:57.811Z,64.64
2023-04-11T01:59:57.921Z,65.80
2023-04-11T02:00:58.389Z,66.61
2023-04-11T02:01:59.015Z,66.44
2023-04-11T02:02:59.209Z,67.66
2023-04-11T02:03:59.368Z,67.15
2023-04-11T02:04:59.346Z,67.46
2023-04-11T02:05:59.838Z,68.27
2023-04-11T02:07:00.331Z,69.22
2023-04-11T02:08:00.813Z,67.29
2023-04-11T02:09:01.285Z,68.30
2023-04-11T02:10:01.770Z,69.02
2023-04-11T02:11:02.243Z,69.02
2023-04-11T02:12:02.735Z,69.02
2023-04-11T02:13:03.231Z,67.90
2023-04-11T02:14:03.700Z,67.99
2023-04-11T02:15:04.162Z,69.93
2023-04-11T02:16:04.697Z,70.75
2023-04-11T02:17:05.209Z,70.17
2023-04-11T02:18:05.747Z,69.76
2023-04-11T02:19:06.359Z,72.41
2023-04-11T02:20:06.863Z,73.33
2023-04-11T02:21:07.346Z,73.27
2023-04-11T02:22:07.817Z,72.65
2023-04-11T02:23:08.306Z,73.27
2023-04-11T02:24:08.812Z,74.29
2023-04-11T02:25:09.292Z,72.45
2023-04-11T02:26:09.913Z,73.88
2023-04-11T02:27:10.457Z,74.08
2023-04-11T02:28:10.941Z,74.69
2023-04-11T02:29:11.414Z,76.22
2023-04-11T02:30:11.884Z,75.92
2023-04-11T02:31:12.424Z,74.90
2023-04-11T02:32:13.072Z,74.08
2023-04-11T02:33:13.122Z,74.59
2023-04-11T02:34:13.618Z,73.27
2023-04-11T02:35:14.101Z,72.86
2023-04-11T02:36:14.708Z,73.88
2023-04-11T02:37:15.244Z,74.69
2023-04-11T02:38:15.725Z,75.20
2023-04-11T02:39:16.189Z,75.10
2023-04-11T02:40:16.672Z,75.41
2023-04-11T02:41:17.183Z,77.18
2023-04-11T02:42:17.687Z,78.54
2023-04-11T02:43:18.174Z,80.38
2023-04-11T02:44:18.650Z,82.05
2023-04-11T02:45:19.120Z,83.38
2023-04-11T02:46:19.641Z,83.62
2023-04-11T02:47:20.215Z,84.75
2023-04-11T02:48:20.725Z,85.50
2023-04-11T02:49:21.200Z,86.02
2023-04-11T02:50:21.681Z,87.24
2023-04-11T02:51:22.181Z,88.20
2023-04-11T02:52:22.666Z,88.31
2023-04-11T02:53:23.136Z,88.82
2023-04-11T02:54:23.616Z,89.12
2023-04-11T02:55:24.111Z,89.17
2023-04-11T02:56:24.607Z,90.30
2023-04-11T02:57:25.100Z,90.50
2023-04-11T02:58:25.571Z,91.05
2023-04-11T02:59:26.056Z,91.67
2023-04-11T03:00:26.549Z,91.36
2023-04-11T03:01:27.080Z,91.56
2023-04-11T03:02:27.787Z,91.67
2023-04-11T03:03:28.032Z,91.87
2023-04-11T03:04:28.092Z,91.05
2023-04-11T03:05:28.624Z,91.16
2023-04-11T03:06:29.108Z,90.64
2023-04-11T03:07:29.583Z,91.46
2023-04-11T03:08:30.072Z,90.95
2023-04-11T03:09:30.568Z,91.46
2023-04-11T03:10:31.128Z,91.56
2023-04-11T03:11:31.620Z,91.05
2023-04-11T03:12:32.113Z,91.26
2023-04-11T03:13:32.610Z,91.16
2023-04-11T03:14:33.106Z,91.26
2023-04-11T03:15:33.743Z,91.36
2023-04-11T03:16:34.217Z,90.03
2023-04-11T03:17:34.718Z,90.34
2023-04-11T03:18:35.221Z,90.84
2023-04-11T03:19:35.726Z,91.30
2023-04-11T03:20:36.192Z,91.40
2023-04-11T03:21:36.670Z,91.30
2023-04-11T03:22:37.166Z,91.50
2023-04-11T03:23:37.646Z,91.40
2023-04-11T03:24:38.117Z,91.61
2023-04-11T03:25:38.583Z,91.71
2023-04-11T03:26:39.065Z,92.22
2023-04-11T03:27:39.554Z,92.63
2023-04-11T03:28:40.043Z,92.43
2023-04-11T03:29:40.560Z,92.74
2023-04-11T03:30:41.081Z,92.53
2023-04-11T03:31:41.600Z,92.63
2023-04-11T03:32:42.097Z,92.83
2023-04-11T03:33:42.605Z,93.15
2023-04-11T03:34:43.101Z,93.35
2023-04-11T03:35:43.611Z,93.15
2023-04-11T03:36:44.093Z,93.15
2023-04-11T03:37:44.572Z,92.94
2023-04-11T03:38:45.060Z,93.04
2023-04-11T03:39:45.551Z,93.55
2023-04-11T03:40:46.040Z,93.86
2023-04-11T03:41:46.540Z,93.45
2023-04-11T03:42:47.035Z,93.35
2023-04-11T03:43:47.531Z,93.55
2023-04-11T03:44:48.022Z,93.25
2023-04-11T03:45:48.512Z,92.74
2023-04-11T03:46:49.057Z,92.63
2023-04-11T03:47:49.625Z,92.74
2023-04-11T03:48:50.148Z,92.16
2023-04-11T03:49:50.626Z,92.43
2023-04-11T03:50:51.087Z,92.88
2023-04-11T03:51:51.545Z,92.88
2023-04-11T03:52:52.008Z,92.68
2023-04-11T03:53:52.488Z,92.88
2023-04-11T03:54:53.012Z,92.98
2023-04-11T03:55:53.487Z,93.08
2023-04-11T03:56:53.934Z,93.39
2023-04-11T03:57:54.364Z,92.68
2023-04-11T03:58:55.031Z,92.47
2023-04-11T03:59:55.070Z,92.36
2023-04-11T04:00:55.528Z,92.47
2023-04-11T04:01:56.026Z,92.27
2023-04-11T04:02:56.690Z,92.06
2023-04-11T04:03:56.989Z,92.27
2023-04-11T04:04:57.369Z,92.57
2023-04-11T04:05:57.849Z,92.47
2023-04-11T04:06:58.302Z,92.27
2023-04-11T04:07:58.749Z,91.96
2023-04-11T04:08:59.167Z,91.96
2023-04-11T04:09:59.585Z,92.61
2023-04-11T04:11:00.029Z,92.78
2023-04-11T04:12:00.466Z,92.82
2023-04-11T04:13:00.906Z,92.51
2023-04-11T04:14:01.331Z,92.51
2023-04-11T04:15:01.753Z,92.00
2023-04-11T04:16:03.664Z,92.31
2023-04-11T04:17:02.703Z,92.68
2023-04-11T04:18:03.214Z,92.72
2023-04-11T04:19:03.655Z,92.93
2023-04-11T04:20:04.113Z,92.51
2023-04-11T04:21:04.533Z,93.33
2023-04-11T04:22:04.970Z,93.44
2023-04-11T04:23:05.424Z,93.44
2023-04-11T04:24:05.873Z,93.85
2023-04-11T04:25:06.308Z,93.54
2023-04-11T04:26:06.738Z,93.74
2023-04-11T04:27:07.225Z,94.10
2023-04-11T04:28:07.642Z,94.46
2023-04-11T04:29:08.048Z,94.05
2023-04-11T04:30:08.177Z,93.99
2023-04-11T04:31:08.627Z,93.95
2023-04-11T04:32:09.070Z,93.64
2023-04-11T04:33:09.547Z,93.89
2023-04-11T04:34:09.973Z,94.10
2023-04-11T04:35:10.399Z,94.15
2023-04-11T04:36:10.890Z,94.15
2023-04-11T04:37:11.438Z,93.85
2023-04-11T04:38:11.878Z,93.74
2023-04-11T04:39:12.336Z,92.21
2023-04-11T04:40:12.779Z,92.10
2023-04-11T04:41:13.217Z,91.22
2023-04-11T04:42:13.648Z,91.94
2023-04-11T04:43:14.079Z,91.74
2023-04-11T04:44:14.515Z,92.14
2023-04-11T04:45:14.955Z,91.33
2023-04-11T04:46:15.757Z,91.02
2023-04-11T04:47:16.264Z,90.61
2023-04-11T04:48:16.720Z,91.33
2023-04-11T04:49:17.161Z,90.20
2023-04-11T04:50:17.598Z,89.42
2023-04-11T04:51:18.031Z,89.27
2023-04-11T04:52:18.461Z,89.83
2023-04-11T04:53:18.901Z,90.14
2023-04-11T04:54:19.381Z,89.93
2023-04-11T04:55:19.839Z,90.44
2023-04-11T04:56:20.262Z,90.14
2023-04-11T04:57:20.689Z,89.87
2023-04-11T04:58:21.120Z,90.38
2023-04-11T04:59:21.562Z,90.55
2023-04-11T05:00:23.272Z,90.34
2023-04-11T05:01:22.104Z,90.14
2023-04-11T05:02:22.657Z,90.65
2023-04-11T05:03:22.860Z,90.85
2023-04-11T05:04:22.952Z,90.65
2023-04-11T05:05:22.971Z,90.18
2023-04-11T05:06:23.462Z,90.89
2023-04-11T05:07:23.918Z,90.75
2023-04-11T05:08:24.345Z,90.48
2023-04-11T05:09:24.780Z,91.00
2023-04-11T05:10:25.252Z,91.61
2023-04-11T05:11:25.890Z,91.41
2023-04-11T05:12:26.366Z,91.51
2023-04-11T05:13:26.843Z,91.93
2023-04-11T05:14:27.300Z,91.51
2023-04-11T05:15:27.747Z,91.41
2023-04-11T05:16:28.210Z,91.51
2023-04-11T05:17:28.695Z,91.20
2023-04-11T05:18:29.137Z,91.00
2023-04-11T05:19:29.571Z,90.69
2023-04-11T05:20:29.994Z,90.69
2023-04-11T05:21:30.448Z,90.48
2023-04-11T05:22:30.890Z,90.38
2023-04-11T05:23:31.362Z,90.69
2023-04-11T05:24:31.839Z,91.31
2023-04-11T05:25:32.290Z,91.10
2023-04-11T05:26:32.738Z,91.72
2023-04-11T05:27:33.190Z,91.82
2023-04-11T05:28:33.671Z,91.82
2023-04-11T05:29:34.145Z,91.82
2023-04-11T05:30:34.623Z,92.17
2023-04-11T05:31:35.070Z,91.00
2023-04-11T05:32:35.583Z,91.55
2023-04-11T05:33:36.072Z,91.86
2023-04-11T05:34:36.508Z,92.07
2023-04-11T05:35:36.989Z,91.97
2023-04-11T05:36:37.440Z,91.86
2023-04-11T05:37:37.878Z,91.86
2023-04-11T05:38:38.321Z,92.07
2023-04-11T05:39:38.757Z,91.55
2023-04-11T05:40:39.200Z,91.35
2023-04-11T05:41:39.648Z,90.83
2023-04-11T05:42:40.094Z,90.01
2023-04-11T05:43:40.558Z,90.01
2023-04-11T05:44:41.002Z,89.40
2023-04-11T05:45:41.484Z,89.29
2023-04-11T05:46:41.959Z,89.91
2023-04-11T05:47:42.470Z,90.01
2023-04-11T05:48:42.950Z,90.47
2023-04-11T05:49:43.397Z,90.26
2023-04-11T05:50:43.832Z,89.23
2023-04-11T05:51:44.296Z,90.36
2023-04-11T05:52:44.748Z,90.78
2023-04-11T05:53:45.232Z,90.06
2023-04-11T05:54:45.711Z,90.26
2023-04-11T05:55:46.171Z,90.78
2023-04-11T05:56:46.611Z,90.47
2023-04-11T05:57:47.046Z,90.57
2023-04-11T05:58:47.502Z,91.08
2023-04-11T05:59:47.965Z,90.41
2023-04-11T06:00:48.403Z,90.20
2023-04-11T06:01:48.875Z,90.16
2023-04-11T06:02:49.555Z,89.38
2023-04-11T06:03:49.573Z,89.28
2023-04-11T06:04:50.048Z,89.07
2023-04-11T06:05:50.559Z,89.48
2023-04-11T06:06:51.004Z,87.84
2023-04-11T06:07:51.444Z,87.57
2023-04-11T06:08:51.899Z,87.77
2023-04-11T06:09:52.343Z,86.54
2023-04-11T06:10:52.785Z,87.15
2023-04-11T06:11:53.230Z,87.05
2023-04-11T06:12:53.676Z,87.46
2023-04-11T06:13:54.317Z,87.15
2023-04-11T06:14:54.392Z,87.15
2023-04-11T06:15:54.867Z,85.82
2023-04-11T06:16:55.327Z,86.43
2023-04-11T06:17:55.857Z,85.20
2023-04-11T06:18:56.365Z,85.30
2023-04-11T06:19:56.835Z,84.99
2023-04-11T06:20:57.282Z,84.07
2023-04-11T06:21:57.724Z,85.65
2023-04-11T06:22:58.217Z,86.06
2023-04-11T06:23:58.657Z,85.41
2023-04-11T06:24:59.097Z,86.06
2023-04-11T06:25:59.535Z,86.06
2023-04-11T06:26:59.977Z,85.03
2023-04-11T06:28:00.429Z,83.59
2023-04-11T06:29:00.884Z,83.86
2023-04-11T06:30:02.340Z,83.65
2023-04-11T06:31:01.653Z,85.20
2023-04-11T06:32:02.166Z,83.59
2023-04-11T06:33:02.664Z,83.45
2023-04-11T06:34:03.139Z,83.45
2023-04-11T06:35:03.613Z,85.14
2023-04-11T06:36:06.077Z,85.20
2023-04-11T06:37:04.308Z,84.72
2023-04-11T06:38:04.764Z,84.93
2023-04-11T06:39:05.210Z,85.34
2023-04-11T06:40:05.669Z,86.27
2023-04-11T06:41:06.115Z,85.65
2023-04-11T06:42:06.576Z,85.75
2023-04-11T06:43:07.042Z,85.75
2023-04-11T06:44:07.514Z,86.06
2023-04-11T06:45:08.020Z,85.86
2023-04-11T06:46:08.539Z,85.75
2023-04-11T06:47:09.014Z,86.16
2023-04-11T06:48:09.487Z,86.54
2023-04-11T06:49:09.995Z,87.19
2023-04-11T06:50:10.454Z,85.71
2023-04-11T06:51:10.964Z,85.44
2023-04-11T06:52:11.424Z,84.99
2023-04-11T06:53:11.934Z,85.34
2023-04-11T06:54:12.393Z,85.10
2023-04-11T06:55:12.837Z,84.79
2023-04-11T06:56:13.292Z,85.51
2023-04-11T06:57:13.764Z,84.99
2023-04-11T06:58:14.203Z,84.89
2023-04-11T06:59:14.669Z,84.58
2023-04-11T07:00:15.139Z,84.17
2023-04-11T07:01:15.604Z,85.71
2023-04-11T07:02:16.185Z,84.69
2023-04-11T07:03:16.959Z,84.07
2023-04-11T07:04:17.265Z,85.20
2023-04-11T07:05:17.231Z,84.69
2023-04-11T07:06:17.698Z,84.17
2023-04-11T07:07:18.153Z,84.17
2023-04-11T07:08:18.655Z,83.97
2023-04-11T07:09:19.134Z,84.48
2023-04-11T07:10:19.605Z,83.86
2023-04-11T07:11:20.227Z,84.85
2023-04-11T07:12:20.713Z,84.54
2023-04-11T07:13:21.194Z,84.44
2023-04-11T07:14:21.671Z,84.54
2023-04-11T07:15:22.134Z,84.23
2023-04-11T07:16:22.649Z,84.13
2023-04-11T07:17:23.190Z,83.48
2023-04-11T07:18:23.660Z,84.03
2023-04-11T07:19:24.139Z,84.44
2023-04-11T07:20:24.591Z,84.30
2023-04-11T07:21:25.050Z,84.20
2023-04-11T07:22:25.506Z,82.86
2023-04-11T07:23:25.978Z,83.58
2023-04-11T07:24:26.431Z,83.27
2023-04-11T07:25:26.876Z,82.96
2023-04-11T07:26:27.340Z,83.37
2023-04-11T07:27:27.788Z,83.48
2023-04-11T07:28:28.255Z,83.58
2023-04-11T07:29:28.740Z,84.20
2023-04-11T07:30:29.179Z,84.40
2023-04-11T07:31:29.653Z,83.17
2023-04-11T07:32:30.173Z,82.14
2023-04-11T07:33:30.679Z,83.06
2023-04-11T07:34:31.148Z,83.17
2023-04-11T07:35:31.607Z,83.48
2023-04-11T07:36:32.062Z,84.09
2023-04-11T07:37:32.542Z,84.71
2023-04-11T07:38:33.023Z,84.09
2023-04-11T07:39:33.470Z,83.78
2023-04-11T07:40:33.944Z,84.09
2023-04-11T07:41:34.422Z,83.58
2023-04-11T07:42:34.935Z,83.17
2023-04-11T07:43:35.396Z,83.78
2023-04-11T07:44:35.889Z,82.96
2023-04-11T07:45:36.374Z,82.96
2023-04-11T07:46:36.875Z,83.27
2023-04-11T07:47:37.374Z,82.55
2023-04-11T07:48:37.887Z,82.34
2023-04-11T07:49:38.351Z,82.00
2023-04-11T07:50:38.829Z,82.10
2023-04-11T07:51:39.311Z,81.48
2023-04-11T07:52:39.774Z,81.04
2023-04-11T07:53:40.229Z,81.86
2023-04-11T07:54:40.701Z,81.14
2023-04-11T07:55:41.159Z,79.70
2023-04-11T07:56:41.611Z,80.42
2023-04-11T07:57:42.084Z,81.45
2023-04-11T07:58:42.542Z,80.56
2023-04-11T07:59:42.990Z,80.63
2023-04-11T08:00:43.455Z,79.80
2023-04-11T08:01:43.991Z,80.52
2023-04-11T08:02:44.706Z,80.42
2023-04-11T08:03:44.787Z,79.80
2023-04-11T08:04:45.372Z,80.32
2023-04-11T08:05:45.911Z,80.73
2023-04-11T08:06:46.374Z,81.10
2023-04-11T08:07:47.009Z,80.28
2023-04-11T08:08:47.545Z,79.87
2023-04-11T08:09:47.995Z,79.77
2023-04-11T08:10:50.078Z,79.15
2023-04-11T08:11:48.929Z,79.25
2023-04-11T08:12:49.414Z,79.49
2023-04-11T08:13:49.870Z,80.28
2023-04-11T08:14:50.323Z,79.77
2023-04-11T08:15:50.794Z,79.56
2023-04-11T08:16:52.827Z,80.18
2023-04-11T08:17:51.870Z,79.36
2023-04-11T08:18:52.359Z,77.20
2023-04-11T08:19:52.816Z,78.85
2023-04-11T08:20:53.296Z,77.92
2023-04-11T08:21:53.762Z,78.85
2023-04-11T08:22:54.236Z,78.23
2023-04-11T08:23:55.128Z,78.94
2023-04-11T08:24:55.176Z,79.05
2023-04-11T08:25:55.648Z,77.20
2023-04-11T08:26:56.103Z,77.10
2023-04-11T08:27:56.559Z,77.00
2023-04-11T08:28:57.061Z,77.92
2023-04-11T08:29:57.558Z,77.51
2023-04-11T08:30:58.061Z,77.10
2023-04-11T08:31:58.546Z,78.29
2023-04-11T08:32:59.055Z,76.96
2023-04-11T08:34:00.911Z,77.37
2023-04-11T08:34:59.973Z,76.86
2023-04-11T08:36:00.469Z,76.75
2023-04-11T08:37:00.960Z,77.74
2023-04-11T08:38:01.422Z,76.41
2023-04-11T08:39:01.889Z,77.64
2023-04-11T08:40:02.362Z,76.00
2023-04-11T08:41:02.850Z,76.51
2023-04-11T08:42:03.313Z,75.45
2023-04-11T08:43:03.793Z,74.84
2023-04-11T08:44:04.287Z,74.02
2023-04-11T08:45:04.750Z,74.84
2023-04-11T08:46:05.295Z,74.63
2023-04-11T08:47:05.831Z,73.81
2023-04-11T08:48:06.370Z,74.29
2023-04-11T08:49:06.955Z,73.88
2023-04-11T08:50:07.476Z,74.80
2023-04-11T08:51:08.028Z,72.52
2023-04-11T08:52:08.546Z,70.29
2023-04-11T08:53:09.072Z,71.52
2023-04-11T08:54:09.612Z,70.91
2023-04-11T08:55:10.214Z,70.81
2023-04-11T08:56:10.732Z,70.40
2023-04-11T08:57:11.247Z,69.78
2023-04-11T08:58:11.751Z,70.43
2023-04-11T08:59:12.256Z,68.55
2023-04-11T09:00:12.767Z,67.52
2023-04-11T09:01:13.338Z,66.81
2023-04-11T09:02:13.938Z,68.04
2023-04-11T09:03:14.626Z,68.45
2023-04-11T09:04:14.743Z,68.24
2023-04-11T09:05:15.248Z,67.80
2023-04-11T09:06:15.765Z,67.63
2023-04-11T09:07:16.295Z,67.08
2023-04-11T09:08:16.897Z,66.47
2023-04-11T09:09:17.406Z,67.49
2023-04-11T09:10:17.917Z,66.88
2023-04-11T09:11:18.423Z,66.57
2023-04-11T09:12:18.919Z,67.08
2023-04-11T09:13:19.564Z,68.18
2023-04-11T09:14:20.247Z,66.34
2023-04-11T09:15:20.311Z,66.24
2023-04-11T09:16:20.920Z,65.42
2023-04-11T09:17:21.031Z,64.57
2023-04-11T09:18:21.619Z,62.96
2023-04-11T09:19:22.124Z,64.50
2023-04-11T09:20:22.627Z,63.06
2023-04-11T09:21:23.142Z,62.42
2023-04-11T09:22:23.684Z,62.76
2023-04-11T09:23:27.138Z,63.24
2023-04-11T09:24:24.314Z,63.24
2023-04-11T09:25:24.891Z,61.80
2023-04-11T09:26:25.459Z,62.21
2023-04-11T09:27:25.964Z,63.62
2023-04-11T09:28:26.493Z,62.18
2023-04-11T09:29:27.101Z,62.49
2023-04-11T09:30:27.625Z,63.41
2023-04-11T09:31:28.198Z,63.28
2023-04-11T09:32:29.231Z,61.21
2023-04-11T09:33:29.108Z,60.83
2023-04-11T09:34:29.635Z,63.25
2023-04-11T09:35:30.170Z,61.75
2023-04-11T09:36:30.699Z,62.71
2023-04-11T09:37:31.205Z,60.69
2023-04-11T09:38:31.729Z,58.55
2023-04-11T09:39:32.252Z,60.36
2023-04-11T09:40:32.778Z,58.62
2023-04-11T09:41:33.281Z,62.27
2023-04-11T09:42:33.795Z,58.39
2023-04-11T09:43:34.313Z,58.29
2023-04-11T09:44:34.833Z,58.50
2023-04-11T09:45:44.254Z,56.66
2023-04-11T09:46:35.569Z,56.25
2023-04-11T09:47:36.384Z,56.17
2023-04-11T09:48:46.115Z,56.32
2023-04-11T09:49:36.450Z,55.00
2023-04-11T09:50:36.984Z,56.23
2023-04-11T09:51:37.511Z,54.90
2023-04-11T09:52:38.026Z,54.67
2023-04-11T09:53:38.692Z,55.48
2023-04-11T09:54:39.215Z,54.97
2023-04-11T09:55:39.771Z,53.67
2023-04-11T09:56:40.309Z,54.51
2023-04-11T09:57:40.824Z,55.46
2023-04-11T09:58:41.324Z,55.74
2023-04-11T09:59:41.832Z,56.79
2023-04-11T10:00:42.393Z,55.33
2023-04-11T10:01:43.048Z,55.66
2023-04-11T10:02:43.209Z,55.15
2023-04-11T10:03:43.339Z,56.38
2023-04-11T10:04:43.924Z,55.46
2023-04-11T10:05:44.476Z,54.95
2023-04-11T10:06:44.990Z,56.15
2023-04-11T10:07:45.504Z,56.04
2023-04-11T10:08:46.015Z,56.12
2023-04-11T10:09:46.532Z,54.21
2023-04-11T10:10:47.041Z,55.97
2023-04-11T10:11:47.565Z,56.99
2023-04-11T10:12:48.095Z,56.38
2023-04-11T10:13:48.618Z,57.91
2023-04-11T10:14:49.167Z,58.42
2023-04-11T10:15:49.692Z,56.43
2023-04-11T10:16:50.256Z,57.04
2023-04-11T10:17:50.839Z,57.01
2023-04-11T10:18:51.392Z,56.60
2023-04-11T10:19:51.905Z,56.10
2023-04-11T10:20:52.429Z,57.09
2023-04-11T10:21:52.938Z,56.35
2023-04-11T10:22:53.452Z,56.88
2023-04-11T10:23:54.158Z,55.07
2023-04-11T10:24:54.250Z,55.97
2023-04-11T10:25:54.755Z,53.83
2023-04-11T10:26:55.278Z,52.60
2023-04-11T10:27:55.816Z,53.01
2023-04-11T10:28:56.316Z,54.11
2023-04-11T10:29:56.842Z,52.58
2023-04-11T10:30:57.347Z,53.59
2023-04-11T10:31:57.992Z,53.11
2023-04-11T10:32:58.055Z,53.11
2023-04-11T10:33:58.604Z,51.71
2023-04-11T10:34:59.141Z,53.34
2023-04-11T10:35:59.694Z,51.99
2023-04-11T10:37:00.240Z,52.29
2023-04-11T10:38:00.753Z,47.49
2023-04-11T10:39:01.269Z,47.91
2023-04-11T10:40:01.869Z,49.73
2023-04-11T10:41:02.392Z,49.50
2023-04-11T10:42:02.907Z,48.30
2023-04-11T10:43:03.435Z,50.11
2023-04-11T10:44:03.967Z,51.25
2023-04-11T10:45:04.488Z,51.46
2023-04-11T10:46:05.010Z,48.91
2023-04-11T10:47:05.613Z,48.32
2023-04-11T10:48:06.192Z,49.42
2023-04-11T10:49:06.738Z,50.23
2023-04-11T10:50:07.362Z,51.25
2023-04-11T10:51:07.905Z,52.70
2023-04-11T10:52:08.428Z,51.79
2023-04-11T10:53:08.943Z,52.07
2023-04-11T10:54:09.465Z,51.97
2023-04-11T10:55:09.977Z,52.07
2023-04-11T10:56:10.497Z,51.56
2023-04-11T10:57:11.046Z,49.85
2023-04-11T10:58:11.563Z,50.44
2023-04-11T10:59:12.080Z,51.48
2023-04-11T11:00:12.620Z,50.05
2023-04-11T11:01:21.360Z,51.10
2023-04-11T11:02:13.480Z,49.98
2023-04-11T11:03:13.653Z,49.90
2023-04-11T11:04:14.323Z,51.02
2023-04-11T11:05:13.913Z,50.77
2023-04-11T11:06:14.428Z,49.85
2023-04-11T11:07:14.962Z,50.28
2023-04-11T11:08:15.471Z,50.99
2023-04-11T11:09:16.098Z,50.79
2023-04-11T11:10:16.622Z,52.60
2023-04-11T11:11:17.175Z,51.48
2023-04-11T11:12:17.714Z,51.48
2023-04-11T11:13:18.234Z,51.17
2023-04-11T11:14:18.727Z,52.27
2023-04-11T11:15:19.279Z,50.31
2023-04-11T11:16:19.888Z,50.72
2023-04-11T11:17:20.485Z,51.23
2023-04-11T11:18:21.027Z,51.86
2023-04-11T11:19:21.565Z,51.64
2023-04-11T11:20:22.074Z,54.26
2023-04-11T11:21:27.725Z,54.97
2023-04-11T11:22:22.783Z,54.97
2023-04-11T11:23:23.325Z,53.85
2023-04-11T11:24:23.859Z,55.41
2023-04-11T11:25:24.419Z,53.06
2023-04-11T11:26:24.952Z,52.53
2023-04-11T11:27:25.477Z,50.49
2023-04-11T11:28:25.997Z,51.10
2023-04-11T11:29:26.502Z,52.10
2023-04-11T11:30:27.037Z,52.20
2023-04-11T11:31:27.637Z,53.22
2023-04-11T11:32:28.742Z,53.11
2023-04-11T11:33:28.464Z,53.65
2023-04-11T11:34:28.995Z,52.30
2023-04-11T11:35:29.514Z,52.22
2023-04-11T11:36:30.066Z,52.08
2023-04-11T11:37:30.605Z,49.37
2023-04-11T11:38:31.139Z,49.90
2023-04-11T11:39:31.669Z,50.31
2023-04-11T11:40:32.173Z,51.84
2023-04-11T11:41:32.702Z,51.13
2023-04-11T11:42:33.226Z,51.00
2023-04-11T11:43:33.743Z,51.36
2023-04-11T11:44:34.278Z,50.75
2023-04-11T11:45:34.795Z,50.42
2023-04-11T11:46:35.373Z,48.69
2023-04-11T11:47:35.955Z,47.98
2023-04-11T11:48:36.521Z,47.90
2023-04-11T11:49:37.077Z,50.01
2023-04-11T11:50:37.640Z,48.67
2023-04-11T11:51:38.208Z,48.90
2023-04-11T11:52:38.753Z,48.59
2023-04-11T11:53:39.333Z,46.78
2023-04-11T11:54:39.897Z,47.50
2023-04-11T11:55:40.464Z,47.47
2023-04-11T11:56:41.061Z,47.53
2023-04-11T11:57:41.625Z,45.50
2023-04-11T11:58:42.210Z,46.41
2023-04-11T11:59:42.777Z,47.89
2023-04-11T12:00:43.409Z,44.65
2023-04-11T12:01:43.989Z,45.76
2023-04-11T12:02:45.019Z,42.23
2023-04-11T12:03:44.804Z,43.77
2023-04-11T12:04:45.148Z,43.91
2023-04-11T12:05:45.176Z,44.22
2023-04-11T12:06:45.728Z,45.18
2023-04-11T12:07:46.329Z,46.30
2023-04-11T12:08:47.515Z,45.95
2023-04-11T12:09:46.974Z,43.69
2023-04-11T12:10:47.522Z,43.63
2023-04-11T12:11:48.065Z,44.22
2023-04-11T12:12:53.684Z,45.75
2023-04-11T12:13:48.821Z,44.83
2023-04-11T12:14:49.395Z,44.34
2023-04-11T12:15:49.984Z,45.79
2023-04-11T12:16:50.579Z,45.79
2023-04-11T12:17:51.146Z,47.29
2023-04-11T12:18:51.701Z,44.54
2023-04-11T12:19:52.232Z,43.43
2023-04-11T12:20:52.769Z,43.91
2023-04-11T12:21:53.304Z,44.42
2023-04-11T12:22:54.851Z,47.06
2023-04-11T12:23:53.987Z,46.13
2023-04-11T12:24:54.535Z,45.67
2023-04-11T12:25:55.040Z,44.34
2023-04-11T12:27:06.118Z,44.04
2023-04-11T12:27:55.799Z,44.04
2023-04-11T12:28:56.467Z,45.46
2023-04-11T12:29:56.495Z,45.84
2023-04-11T12:30:57.065Z,45.06
2023-04-11T12:31:57.585Z,44.14
2023-04-11T12:32:58.153Z,43.73
2023-04-11T12:33:58.835Z,44.77
2023-04-11T12:34:58.788Z,44.46
2023-04-11T12:35:59.356Z,45.68
2023-04-11T12:36:59.884Z,45.18
2023-04-11T12:38:00.503Z,44.08
2023-04-11T12:39:01.053Z,44.89
2023-04-11T12:40:01.656Z,46.22
2023-04-11T12:41:20.255Z,45.89
2023-04-11T12:42:02.441Z,45.28
2023-04-11T12:43:03.010Z,46.07
2023-04-11T12:44:03.598Z,46.17
2023-04-11T12:45:04.124Z,46.37
2023-04-11T12:46:04.677Z,47.11
2023-04-11T12:47:05.255Z,46.93
2023-04-11T12:48:05.856Z,48.07
2023-04-11T12:49:06.400Z,46.44
2023-04-11T12:50:06.943Z,47.77
2023-04-11T12:51:07.502Z,48.35
2023-04-11T12:52:08.039Z,47.95
2023-04-11T12:53:08.594Z,45.71
2023-04-11T12:54:09.131Z,45.50
2023-04-11T12:55:09.821Z,46.50
2023-04-11T12:56:09.869Z,47.52
2023-04-11T12:57:10.400Z,45.38
2023-04-11T12:58:10.929Z,45.89